Terminal Aerodrome Forecast
Issued by NWS

Home | Current Version | Previous Version | Text Only | Print | Product List | Glossary On
Versions: 1 2 3 4 5 6 7 8 9 10 11 12 13 14 15 16 17 18 19 20 21 22 23 24 25 26 27 28 29 30 31 32 33 34
000
FTUS41 KBOX 181736
TAFACK
TAF
KACK 181736Z 1818/1918 23008KT P6SM FEW250
     FM182100 23013KT P6SM SCT250
     FM190100 28012KT P6SM SCT080
     FM190200 32013KT P6SM SCT250
     FM190500 36012G22KT P6SM FEW250
     FM191200 03013G22KT P6SM SCT008=

USA.gov is the U.S. government's official web portal to all federal, state and local government web resources and services.